createdAt,value
2022-10-23T00:01:43.626Z,16.70
2022-10-23T00:04:17.573Z,16.10
2022-10-23T00:06:50.917Z,16.90
2022-10-23T00:09:24.497Z,18.40
2022-10-23T00:11:56.093Z,15.60
2022-10-23T00:14:27.962Z,12.80
2022-10-23T00:17:02.421Z,15.10
2022-10-23T00:19:40.276Z,15.50
2022-10-23T00:41:39.697Z,15.90
2022-10-23T00:44:32.621Z,17.50
2022-10-23T00:47:03.715Z,17.10
2022-10-23T00:49:36.698Z,15.40
2022-10-23T00:52:13.198Z,15.60
2022-10-23T00:54:46.385Z,13.60
2022-10-23T00:57:18.494Z,15.50
2022-10-23T00:59:49.774Z,15.00
2022-10-23T01:02:21.126Z,13.00
2022-10-23T01:04:53.751Z,11.40
2022-10-23T01:07:34.553Z,14.20
2022-10-23T01:10:13.135Z,12.90
2022-10-23T01:12:51.937Z,12.00
2022-10-23T01:15:29.984Z,13.20
2022-10-23T01:18:07.453Z,14.20
2022-10-23T01:20:45.916Z,10.80
2022-10-23T01:23:51.059Z,9.60
2022-10-23T01:26:42.127Z,9.00
2022-10-23T01:29:25.024Z,8.60
2022-10-23T01:32:01.483Z,10.10
2022-10-23T01:34:39.196Z,10.30
2022-10-23T01:37:13.652Z,9.70
2022-10-23T01:39:51.354Z,10.00
2022-10-23T01:42:28.473Z,8.20
2022-10-23T01:45:05.275Z,11.20
2022-10-23T01:47:46.346Z,9.00
2022-10-23T01:50:23.296Z,10.40
2022-10-23T01:53:01.364Z,6.80
2022-10-23T01:55:34.713Z,11.10
2022-10-23T01:58:09.744Z,10.20
2022-10-23T02:00:46.913Z,6.70
2022-10-23T02:03:21.744Z,8.40
2022-10-23T02:05:53.514Z,7.20
2022-10-23T02:08:25.734Z,6.70
2022-10-23T02:11:02.234Z,5.90
2022-10-23T02:13:39.567Z,8.00
2022-10-23T02:16:23.948Z,6.00
2022-10-23T02:19:03.312Z,5.60
2022-10-23T02:21:41.800Z,5.10
2022-10-23T02:24:17.170Z,4.10
2022-10-23T02:26:57.090Z,4.10
2022-10-23T02:29:34.251Z,5.60
2022-10-23T02:32:05.953Z,9.40
2022-10-23T02:34:37.584Z,4.50
2022-10-23T02:37:09.155Z,5.80
2022-10-23T02:39:41.674Z,6.00
2022-10-23T02:42:20.642Z,6.40
2022-10-23T02:45:02.740Z,5.90
2022-10-23T02:47:52.471Z,6.40
2022-10-23T02:50:33.902Z,6.60
2022-10-23T02:53:14.242Z,9.70
2022-10-23T02:55:59.375Z,8.50
2022-10-23T02:58:40.458Z,6.90
2022-10-23T03:01:15.840Z,8.10
2022-10-23T03:03:52.552Z,9.40
2022-10-23T03:06:25.070Z,7.20
2022-10-23T03:08:59.772Z,7.10
2022-10-23T03:11:31.239Z,12.10
2022-10-23T03:14:02.764Z,12.30
2022-10-23T03:16:34.025Z,10.00
2022-10-23T03:19:05.300Z,9.90
2022-10-23T03:21:36.558Z,9.70
2022-10-23T03:24:08.602Z,9.90
2022-10-23T03:26:44.620Z,10.20
2022-10-23T03:29:15.872Z,11.20
2022-10-23T03:31:49.437Z,10.50
2022-10-23T03:34:21.123Z,11.70
2022-10-23T03:36:52.475Z,12.00
2022-10-23T03:39:24.539Z,12.80
2022-10-23T03:41:55.802Z,11.50
2022-10-23T03:44:27.221Z,7.30
2022-10-23T03:46:58.489Z,7.30
2022-10-23T03:49:31.189Z,8.60
2022-10-23T03:52:07.698Z,6.70
2022-10-23T03:54:38.952Z,5.60
2022-10-23T03:57:10.145Z,7.40
2022-10-23T03:59:41.467Z,7.70
2022-10-23T04:02:13.300Z,6.20
2022-10-23T04:04:44.474Z,8.30
2022-10-23T04:07:15.770Z,8.00
2022-10-23T04:09:46.978Z,10.60
2022-10-23T04:12:20.575Z,9.10
2022-10-23T04:14:51.733Z,10.10
2022-10-23T04:17:23.502Z,10.40
2022-10-23T04:19:54.728Z,15.90
2022-10-23T04:22:28.266Z,10.70
2022-10-23T04:25:00.043Z,12.50
2022-10-23T04:27:36.037Z,11.40
2022-10-23T04:30:08.641Z,10.70
2022-10-23T04:32:39.868Z,9.20
2022-10-23T04:35:11.984Z,8.30
2022-10-23T04:37:43.396Z,11.30
2022-10-23T04:40:15.208Z,12.30
2022-10-23T04:42:46.401Z,11.90
2022-10-23T04:45:18.319Z,12.00
2022-10-23T04:47:49.703Z,11.00
2022-10-23T04:50:21.732Z,11.20
2022-10-23T04:53:31.760Z,9.30
2022-10-23T04:56:23.148Z,10.70
2022-10-23T04:59:00.567Z,13.20
2022-10-23T05:01:32.311Z,9.80
2022-10-23T05:04:04.566Z,14.60
2022-10-23T05:06:39.220Z,19.10
2022-10-23T05:09:26.493Z,12.00
2022-10-23T05:12:03.901Z,14.50
2022-10-23T05:14:35.114Z,14.80
2022-10-23T05:17:10.619Z,14.70
2022-10-23T05:19:47.361Z,12.20
2022-10-23T05:22:20.899Z,19.70
2022-10-23T05:24:57.879Z,14.10
2022-10-23T05:27:30.717Z,16.10
2022-10-23T05:30:02.599Z,16.10
2022-10-23T05:32:39.679Z,16.60
2022-10-23T05:35:14.161Z,13.80
2022-10-23T05:37:48.380Z,12.00
2022-10-23T05:40:25.234Z,11.30
2022-10-23T05:43:03.202Z,16.40
2022-10-23T05:45:54.683Z,12.30
2022-10-23T05:48:38.054Z,16.00
2022-10-23T05:51:22.507Z,16.80
2022-10-23T05:54:07.898Z,14.20
2022-10-23T05:57:08.237Z,12.90
2022-10-23T05:59:52.418Z,13.80
2022-10-23T06:02:42.392Z,17.60
2022-10-23T06:05:20.399Z,12.90
2022-10-23T06:08:05.313Z,15.80
2022-10-23T06:10:36.880Z,15.10
2022-10-23T06:13:09.408Z,14.20
2022-10-23T06:15:41.138Z,20.70
2022-10-23T06:18:17.886Z,14.40
2022-10-23T06:21:01.234Z,15.20
2022-10-23T06:23:35.274Z,15.10
2022-10-23T06:26:23.387Z,14.10
2022-10-23T06:29:14.904Z,14.90
2022-10-23T06:31:46.839Z,13.90
2022-10-23T06:34:18.112Z,14.40
2022-10-23T06:36:50.278Z,13.30
2022-10-23T06:39:50.380Z,12.80
2022-10-23T06:42:32.347Z,17.30
2022-10-23T06:45:06.462Z,14.20
2022-10-23T06:47:52.688Z,10.40
2022-10-23T06:50:42.452Z,12.60
2022-10-23T06:53:16.879Z,12.60
2022-10-23T06:55:55.455Z,16.70
2022-10-23T06:58:27.162Z,16.10
2022-10-23T07:01:06.782Z,13.30
2022-10-23T07:03:38.474Z,11.00
2022-10-23T07:06:13.181Z,20.40
2022-10-23T07:08:44.514Z,14.60
2022-10-23T07:11:39.890Z,14.50
2022-10-23T07:14:11.278Z,12.40
2022-10-23T07:16:42.571Z,13.20
2022-10-23T07:19:14.268Z,13.30
2022-10-23T07:22:10.743Z,12.90
2022-10-23T07:24:47.274Z,12.70
2022-10-23T07:27:24.589Z,13.50
2022-10-23T07:30:00.970Z,9.90
2022-10-23T07:32:35.775Z,8.60
2022-10-23T07:35:16.128Z,18.10
2022-10-23T07:38:00.415Z,9.10
2022-10-23T07:40:33.767Z,10.80
2022-10-23T07:43:05.114Z,13.30
2022-10-23T07:45:36.763Z,14.30
2022-10-23T07:48:15.783Z,9.90
2022-10-23T07:51:10.870Z,13.60
2022-10-23T07:53:48.826Z,12.30
2022-10-23T07:56:37.890Z,11.50
2022-10-23T07:59:25.158Z,10.40
2022-10-23T08:01:58.103Z,10.70
2022-10-23T08:04:34.460Z,11.80
2022-10-23T08:07:23.712Z,10.20
2022-10-23T08:09:55.772Z,11.90
2022-10-23T08:12:26.990Z,11.80
2022-10-23T08:14:58.580Z,14.10
2022-10-23T08:17:34.001Z,14.20
2022-10-23T08:20:16.295Z,10.80
2022-10-23T08:22:48.861Z,12.30
2022-10-23T08:25:25.207Z,15.10
2022-10-23T08:27:57.242Z,9.10
2022-10-23T08:30:28.955Z,13.10
2022-10-23T08:33:03.812Z,12.30
2022-10-23T08:35:39.631Z,10.80
2022-10-23T08:38:11.654Z,11.70
2022-10-23T08:40:50.336Z,12.20
2022-10-23T08:43:48.269Z,10.10
2022-10-23T08:46:35.926Z,14.20
2022-10-23T08:49:36.852Z,9.60
2022-10-23T08:52:17.093Z,12.70
2022-10-23T08:54:58.316Z,12.10
2022-10-23T08:57:38.761Z,14.30
2022-10-23T09:00:18.457Z,10.40
2022-10-23T09:02:51.916Z,8.40
2022-10-23T09:05:30.249Z,12.00
2022-10-23T09:08:17.728Z,13.00
2022-10-23T09:11:03.307Z,9.70
2022-10-23T09:14:16.282Z,9.10
2022-10-23T09:16:57.062Z,14.20
2022-10-23T09:19:32.185Z,19.80
2022-10-23T09:22:03.755Z,12.80
2022-10-23T09:24:34.991Z,22.50
2022-10-23T09:27:06.351Z,13.30
2022-10-23T09:29:37.813Z,10.30
2022-10-23T09:32:09.961Z,16.00
2022-10-23T09:34:51.436Z,11.10
2022-10-23T09:37:27.245Z,17.80
2022-10-23T09:40:20.578Z,15.80
2022-10-23T09:42:58.333Z,12.00
2022-10-23T09:45:32.310Z,11.80
2022-10-23T09:48:15.207Z,15.50
2022-10-23T09:50:55.010Z,15.70
2022-10-23T09:53:39.035Z,15.50
2022-10-23T09:56:27.908Z,9.50
2022-10-23T09:59:02.346Z,12.70
2022-10-23T10:01:36.252Z,13.80
2022-10-23T10:04:37.430Z,13.90
2022-10-23T10:07:18.953Z,10.10
2022-10-23T10:09:50.844Z,14.00
2022-10-23T10:12:40.847Z,11.20
2022-10-23T10:15:21.386Z,13.50
2022-10-23T10:18:04.254Z,10.20
2022-10-23T10:20:59.312Z,12.70
2022-10-23T10:23:39.250Z,9.80
2022-10-23T10:26:22.881Z,11.50
2022-10-23T10:29:11.892Z,12.60
2022-10-23T10:31:56.086Z,9.20
2022-10-23T10:34:39.969Z,13.90
2022-10-23T10:37:30.769Z,14.40
2022-10-23T10:40:10.882Z,12.30
2022-10-23T10:43:06.176Z,12.00
2022-10-23T10:45:43.063Z,15.10
2022-10-23T10:48:31.122Z,15.90
2022-10-23T10:51:30.958Z,12.90
2022-10-23T10:54:26.484Z,16.10
2022-10-23T10:57:13.727Z,9.30
2022-10-23T10:59:48.189Z,11.10
2022-10-23T11:02:28.503Z,14.70
2022-10-23T11:05:12.800Z,15.00
2022-10-23T11:07:49.914Z,13.00
2022-10-23T11:10:21.906Z,11.90
2022-10-23T11:12:54.483Z,12.90
2022-10-23T11:15:30.576Z,12.40
2022-10-23T11:18:06.770Z,13.50
2022-10-23T11:20:59.950Z,12.80
2022-10-23T11:24:01.219Z,12.80
2022-10-23T11:26:43.202Z,8.70
2022-10-23T11:29:38.466Z,11.90
2022-10-23T11:32:42.400Z,11.60
2022-10-23T11:35:36.793Z,13.60
2022-10-23T11:38:19.095Z,15.20
2022-10-23T11:40:53.742Z,13.50
2022-10-23T11:43:33.592Z,14.20
2022-10-23T11:46:18.223Z,14.20
2022-10-23T11:48:49.510Z,12.20
2022-10-23T11:51:35.469Z,9.00
2022-10-23T11:54:24.804Z,6.00
2022-10-23T11:57:11.000Z,5.80
2022-10-23T11:59:54.799Z,4.30
2022-10-23T12:02:33.195Z,5.90
2022-10-23T12:05:08.002Z,6.40
2022-10-23T12:07:42.689Z,4.20
2022-10-23T12:10:28.843Z,3.90
2022-10-23T12:13:01.758Z,4.70
2022-10-23T12:15:35.010Z,6.70
2022-10-23T12:18:17.860Z,4.20
2022-10-23T12:20:52.837Z,3.50
2022-10-23T12:23:48.126Z,6.20
2022-10-23T12:26:55.208Z,5.10
2022-10-23T12:29:44.228Z,7.80
2022-10-23T12:32:33.880Z,6.60
2022-10-23T12:35:33.413Z,5.70
2022-10-23T12:38:16.494Z,6.40
2022-10-23T12:40:53.032Z,5.90
2022-10-23T12:43:32.796Z,3.80
2022-10-23T12:46:17.967Z,4.60
2022-10-23T12:48:53.879Z,5.90
2022-10-23T12:51:27.664Z,4.70
2022-10-23T12:53:59.290Z,5.70
2022-10-23T12:56:37.396Z,6.90
2022-10-23T12:59:17.868Z,5.50
2022-10-23T13:01:52.604Z,5.50
2022-10-23T13:04:31.952Z,8.00
2022-10-23T13:07:05.207Z,5.00
2022-10-23T13:09:40.948Z,8.00
2022-10-23T13:12:24.466Z,5.80
2022-10-23T13:15:03.662Z,7.80
2022-10-23T13:17:40.649Z,6.70
2022-10-23T13:20:26.457Z,6.60
2022-10-23T13:23:02.356Z,6.10
2022-10-23T13:25:35.957Z,7.10
2022-10-23T13:28:22.444Z,7.80
2022-10-23T13:31:28.791Z,6.50
2022-10-23T13:34:23.893Z,5.20
2022-10-23T13:37:26.009Z,6.70
2022-10-23T13:40:05.217Z,11.50
2022-10-23T13:42:36.699Z,8.10
2022-10-23T13:45:17.538Z,8.00
2022-10-23T13:47:48.746Z,5.80
2022-10-23T13:50:23.144Z,6.30
2022-10-23T13:52:54.299Z,7.10
2022-10-23T13:55:28.414Z,7.00
2022-10-23T13:57:59.860Z,6.00
2022-10-23T14:00:31.132Z,7.30
2022-10-23T14:03:03.318Z,8.20
2022-10-23T14:05:34.834Z,5.50
2022-10-23T14:08:06.139Z,10.00
2022-10-23T14:10:37.018Z,7.50
2022-10-23T14:13:08.236Z,9.00
2022-10-23T14:15:39.422Z,7.60
2022-10-23T14:18:10.947Z,5.30
2022-10-23T14:20:42.559Z,5.60
2022-10-23T14:23:13.739Z,6.10
2022-10-23T14:25:47.679Z,6.40
2022-10-23T14:28:18.891Z,7.90
2022-10-23T14:30:50.128Z,7.50
2022-10-23T14:33:21.412Z,6.50
2022-10-23T14:35:54.082Z,7.80
2022-10-23T14:38:27.509Z,5.70
2022-10-23T14:40:58.684Z,6.10
2022-10-23T14:43:30.015Z,5.50
2022-10-23T14:46:11.362Z,8.50
2022-10-23T14:48:46.115Z,7.10
2022-10-23T14:51:22.232Z,6.90
2022-10-23T14:53:59.626Z,7.60
2022-10-23T14:56:32.236Z,5.60
2022-10-23T14:59:03.818Z,6.80
2022-10-23T15:01:42.277Z,8.10
2022-10-23T15:04:17.127Z,7.50
2022-10-23T15:06:51.187Z,6.40
2022-10-23T15:09:23.692Z,10.00
2022-10-23T15:11:56.807Z,11.90
2022-10-23T15:14:28.197Z,8.30
2022-10-23T15:17:02.961Z,9.90
2022-10-23T15:19:34.234Z,10.10
2022-10-23T15:22:05.451Z,6.70
2022-10-23T15:24:36.868Z,6.80
2022-10-23T15:29:47.547Z,11.30
2022-10-23T15:32:19.196Z,9.60
2022-10-23T15:34:52.241Z,8.90
2022-10-23T15:37:23.452Z,12.10
2022-10-23T15:39:57.173Z,9.60
2022-10-23T15:42:31.047Z,12.80
2022-10-23T15:45:02.176Z,9.10
2022-10-23T15:47:33.349Z,11.60
2022-10-23T15:50:04.798Z,12.30
2022-10-23T15:52:36.104Z,11.60
2022-10-23T15:55:11.920Z,11.80
2022-10-23T15:57:44.457Z,16.30
2022-10-23T16:00:20.380Z,12.00
2022-10-23T16:02:53.168Z,12.70
2022-10-23T16:05:24.416Z,11.20
2022-10-23T16:07:55.681Z,16.50
2022-10-23T16:10:28.218Z,13.80
2022-10-23T16:12:59.458Z,14.30
2022-10-23T16:15:30.725Z,11.10
2022-10-23T16:18:02.161Z,15.00
2022-10-23T16:20:33.469Z,13.10
2022-10-23T16:23:04.633Z,9.40
2022-10-23T16:25:38.443Z,14.60
2022-10-23T16:28:09.698Z,14.30
2022-10-23T16:30:45.486Z,13.50
2022-10-23T16:33:16.826Z,11.80
2022-10-23T16:35:48.087Z,9.90
2022-10-23T16:38:21.939Z,13.20
2022-10-23T16:40:56.308Z,13.10
2022-10-23T16:43:45.424Z,16.30
2022-10-23T16:46:36.286Z,10.60
2022-10-23T16:49:09.612Z,17.70
2022-10-23T16:51:40.958Z,16.10
2022-10-23T16:54:12.304Z,14.90
2022-10-23T16:56:45.043Z,12.70
2022-10-23T16:59:19.226Z,17.10
2022-10-23T17:01:51.927Z,12.70
2022-10-23T17:04:25.402Z,16.70
2022-10-23T17:06:56.872Z,15.00
2022-10-23T17:09:31.406Z,14.50
2022-10-23T17:12:03.115Z,16.90
2022-10-23T17:14:35.342Z,21.30
2022-10-23T17:17:09.898Z,24.20
2022-10-23T17:19:45.911Z,18.50
2022-10-23T17:22:18.487Z,18.60
2022-10-23T17:24:52.941Z,20.50
2022-10-23T17:27:27.867Z,15.70
2022-10-23T17:29:59.361Z,14.70
2022-10-23T17:32:30.740Z,14.40
2022-10-23T17:35:02.108Z,15.30
2022-10-23T17:37:33.362Z,14.90
2022-10-23T17:40:06.825Z,13.90
2022-10-23T17:42:38.049Z,8.80
2022-10-23T17:45:10.892Z,12.40
2022-10-23T17:47:43.289Z,12.20
2022-10-23T17:50:14.583Z,12.00
2022-10-23T17:52:46.128Z,13.90
2022-10-23T17:55:18.703Z,14.60
2022-10-23T17:57:49.863Z,15.30
2022-10-23T18:00:21.549Z,19.00
2022-10-23T18:02:52.727Z,17.20
2022-10-23T18:05:26.557Z,18.40
2022-10-23T18:07:57.820Z,17.60
2022-10-23T18:10:29.394Z,15.60
2022-10-23T18:13:00.588Z,20.40
2022-10-23T18:15:34.567Z,23.80
2022-10-23T18:18:07.975Z,32.40
2022-10-23T18:20:43.284Z,23.50
2022-10-23T18:23:14.468Z,33.90
2022-10-23T18:25:46.520Z,34.10
2022-10-23T18:28:17.718Z,35.60
2022-10-23T18:30:54.739Z,29.80
2022-10-23T18:33:28.230Z,27.60
2022-10-23T18:35:59.533Z,28.60
2022-10-23T18:38:33.561Z,32.20
2022-10-23T18:41:04.975Z,26.20
2022-10-23T18:43:43.865Z,25.20
2022-10-23T18:46:16.626Z,29.20
2022-10-23T18:48:48.526Z,20.70
2022-10-23T18:51:22.669Z,21.80
2022-10-23T18:53:54.635Z,18.30
2022-10-23T18:56:28.105Z,18.80
2022-10-23T18:59:01.925Z,15.90
2022-10-23T19:01:33.775Z,13.00
2022-10-23T19:04:05.529Z,15.20
2022-10-23T19:06:38.368Z,15.00
2022-10-23T19:09:11.420Z,17.10
2022-10-23T19:11:43.206Z,14.90
2022-10-23T19:14:14.724Z,14.70
2022-10-23T19:16:55.646Z,16.10
2022-10-23T19:19:31.840Z,19.90
2022-10-23T19:22:05.481Z,19.10
2022-10-23T19:24:42.680Z,23.20
2022-10-23T19:27:14.130Z,27.90
2022-10-23T19:29:47.562Z,23.50
2022-10-23T19:32:18.941Z,16.30
2022-10-23T19:34:53.027Z,21.50
2022-10-23T19:37:24.840Z,17.90
2022-10-23T19:39:58.760Z,20.10
2022-10-23T19:42:30.183Z,21.40
2022-10-23T19:45:01.427Z,20.30
2022-10-23T19:47:32.752Z,23.80
2022-10-23T19:50:04.609Z,22.10
2022-10-23T19:52:35.898Z,21.30
2022-10-23T19:55:10.046Z,21.40
2022-10-23T19:57:41.846Z,14.70
2022-10-23T20:00:15.430Z,16.20
2022-10-23T20:02:51.415Z,19.60
2022-10-23T20:05:25.730Z,16.10
2022-10-23T20:07:57.887Z,17.90
2022-10-23T20:10:29.273Z,15.70
2022-10-23T20:13:18.660Z,13.70
2022-10-23T20:18:21.083Z,13.60
2022-10-23T20:20:55.813Z,20.30
2022-10-23T20:23:28.118Z,17.10
2022-10-23T20:26:07.574Z,15.90
2022-10-23T20:28:40.891Z,16.70
2022-10-23T20:31:12.963Z,16.90
2022-10-23T20:33:45.370Z,15.80
2022-10-23T20:36:27.369Z,21.70
2022-10-23T20:38:59.996Z,14.70
2022-10-23T20:41:33.443Z,16.60
2022-10-23T20:44:06.622Z,16.40
2022-10-23T20:46:38.268Z,14.00
2022-10-23T20:49:11.247Z,15.90
2022-10-23T20:51:42.805Z,14.90
2022-10-23T20:54:14.318Z,17.50
2022-10-23T20:56:45.609Z,18.30
2022-10-23T20:59:19.396Z,19.10
2022-10-23T21:01:53.491Z,20.80
2022-10-23T21:04:27.664Z,17.20
2022-10-23T21:07:10.347Z,19.10
2022-10-23T21:09:42.350Z,16.60
2022-10-23T21:12:13.650Z,21.10
2022-10-23T21:14:45.230Z,19.60
2022-10-23T21:17:18.227Z,23.20
2022-10-23T21:19:49.846Z,19.90
2022-10-23T21:22:21.130Z,27.50
2022-10-23T21:24:52.432Z,32.90
2022-10-23T21:27:23.989Z,27.30
2022-10-23T21:29:55.179Z,25.30
2022-10-23T21:32:26.376Z,25.10
2022-10-23T21:34:57.665Z,28.00
2022-10-23T21:37:28.982Z,23.40
2022-10-23T21:40:03.131Z,16.40
2022-10-23T21:42:34.481Z,22.20
2022-10-23T21:45:06.448Z,20.00
2022-10-23T21:47:37.726Z,18.90
2022-10-23T21:50:10.272Z,21.80
2022-10-23T21:52:41.789Z,16.00
2022-10-23T21:55:13.757Z,10.80
2022-10-23T21:57:45.000Z,18.60
2022-10-23T22:00:21.673Z,19.40
2022-10-23T22:02:55.003Z,13.40
2022-10-23T22:05:26.242Z,16.90
2022-10-23T22:07:57.531Z,16.10
2022-10-23T22:10:28.912Z,20.80
2022-10-23T22:13:00.043Z,17.40
2022-10-23T22:15:31.775Z,18.60
2022-10-23T22:18:02.979Z,20.30
2022-10-23T22:20:34.121Z,16.90
2022-10-23T22:23:05.244Z,19.20
2022-10-23T22:25:39.187Z,22.70
2022-10-23T22:28:10.540Z,14.50
2022-10-23T22:30:41.690Z,22.00
2022-10-23T22:33:12.902Z,19.40
2022-10-23T22:35:44.150Z,15.70
2022-10-23T22:38:15.380Z,16.00
2022-10-23T22:40:46.881Z,17.80
2022-10-23T22:43:18.150Z,20.70
2022-10-23T22:45:49.391Z,17.30
2022-10-23T22:48:20.592Z,21.40
2022-10-23T22:50:53.713Z,24.50
2022-10-23T22:53:25.459Z,17.30
2022-10-23T22:55:57.959Z,17.90
2022-10-23T22:58:29.385Z,19.40
2022-10-23T23:01:08.025Z,20.70
2022-10-23T23:03:39.862Z,19.80
2022-10-23T23:06:11.949Z,20.60
2022-10-23T23:08:44.055Z,19.70
2022-10-23T23:11:17.133Z,27.10
2022-10-23T23:13:48.996Z,26.30
2022-10-23T23:16:25.547Z,20.20
2022-10-23T23:18:57.618Z,26.50
2022-10-23T23:21:30.959Z,19.50
2022-10-23T23:24:02.533Z,17.10
2022-10-23T23:26:33.708Z,23.20
2022-10-23T23:29:07.437Z,14.00
2022-10-23T23:31:39.063Z,20.90
2022-10-23T23:34:10.410Z,18.60
2022-10-23T23:36:42.271Z,20.90
2022-10-23T23:39:17.000Z,20.90
2022-10-23T23:41:48.268Z,24.30
2022-10-23T23:44:19.450Z,18.70
2022-10-23T23:46:50.662Z,20.20
2022-10-23T23:49:21.837Z,13.40
2022-10-23T23:51:53.101Z,20.80
2022-10-23T23:54:24.443Z,21.60
2022-10-23T23:57:01.674Z,19.80
2022-10-23T23:59:36.473Z,17.60
